Time;durP1;ratioP1;P1;durP2;ratioP2;P2;SDS_P1;SDS_P2;PMS_P1;PMS_P2;Temp;Humidity;BMP_temperature;BMP_pressure;BME280_temperature;BME280_humidity;BME280_pressure;Samples;Min_cycle;Max_cycle;Signal;HPM_P1;HPM_P2
2021/12/10 00:00:32;;;;;;;17.85;10.60;;;2.60;99.90;;;;;;5054108;28;20538;-78
2021/12/10 00:02:59;;;;;;;17.25;10.27;;;2.60;99.90;;;;;;5031131;28;20413;-81
2021/12/10 00:05:34;;;;;;;18.50;10.75;;;2.60;99.90;;;;;;5018914;28;20077;-79
2021/12/10 00:08:00;;;;;;;;;;;2.60;99.90;;;;;;5005418;28;20110;-79
2021/12/10 00:10:34;;;;;;;18.65;9.57;;;2.60;99.90;;;;;;5060362;28;19963;-80
2021/12/10 00:13:03;;;;;;;18.95;10.65;;;2.60;99.90;;;;;;5040113;28;20515;-81
2021/12/10 00:15:30;;;;;;;17.55;10.52;;;2.60;99.90;;;;;;5037111;28;20068;-80
2021/12/10 00:17:59;;;;;;;14.77;10.27;;;2.60;99.90;;;;;;5044907;28;20057;-79
2021/12/10 00:20:28;;;;;;;21.02;10.75;;;2.60;99.90;;;;;;5025076;28;20045;-79
2021/12/10 00:22:58;;;;;;;21.60;9.85;;;2.60;99.90;;;;;;5020865;28;20041;-79
2021/12/10 00:25:39;;;;;;;20.00;10.18;;;2.60;99.90;;;;;;5053842;28;20029;-79
2021/12/10 00:28:16;;;;;;;12.82;8.18;;;2.50;99.90;;;;;;5044241;28;20036;-78
2021/12/10 00:31:16;;;;;;;18.40;8.98;;;2.60;99.90;;;;;;5011629;28;20033;-78
2021/12/10 00:33:59;;;;;;;21.92;9.75;;;2.70;99.90;;;;;;5039848;28;20029;-80
2021/12/10 00:36:25;;;;;;;12.77;8.13;;;2.60;99.90;;;;;;5035098;28;20037;-79
2021/12/10 00:38:51;;;;;;;16.80;8.38;;;2.50;99.90;;;;;;5038924;28;20033;-81
2021/12/10 00:41:19;;;;;;;17.20;9.15;;;2.50;99.90;;;;;;5040767;28;20457;-81
2021/12/10 00:43:45;;;;;;;16.60;9.05;;;2.50;99.90;;;;;;5042382;28;20512;-81
2021/12/10 00:46:10;;;;;;;15.57;9.50;;;2.50;99.90;;;;;;5050728;28;20037;-83
2021/12/10 00:48:37;;;;;;;18.92;8.93;;;2.50;99.90;;;;;;5017798;28;20037;-80
2021/12/10 00:51:05;;;;;;;14.10;8.00;;;2.60;99.90;;;;;;5054678;28;20370;-80
2021/12/10 00:53:31;;;;;;;22.05;9.18;;;2.60;99.90;;;;;;5039402;28;20064;-81
2021/12/10 00:55:57;;;;;;;17.92;8.50;;;2.60;99.90;;;;;;5040766;28;20067;-80
2021/12/10 00:58:25;;;;;;;12.52;8.43;;;2.60;99.90;;;;;;5045921;28;20041;-80
2021/12/10 01:00:54;;;;;;;19.60;9.00;;;2.70;99.90;;;;;;5038798;28;20056;-81
2021/12/10 01:03:24;;;;;;;16.80;9.20;;;2.60;99.90;;;;;;5040942;28;20033;-82
2021/12/10 01:05:52;;;;;;;17.00;10.07;;;2.60;99.90;;;;;;5037194;28;20051;-82
2021/12/10 01:08:18;;;;;;;19.08;9.73;;;2.60;99.90;;;;;;5041026;28;20025;-82
2021/12/10 01:10:57;;;;;;;16.15;9.73;;;2.50;99.90;;;;;;5057896;28;20075;-80
2021/12/10 01:13:28;;;;;;;18.85;9.00;;;2.50;99.90;;;;;;5025914;28;20392;-81
2021/12/10 01:16:15;;;;;;;16.85;9.20;;;2.50;99.90;;;;;;5032797;28;20029;-81
2021/12/10 01:27:13;;;;;;;12.40;9.07;;;2.50;99.90;;;;;;5057444;28;20029;-79
2021/12/10 01:29:44;;;;;;;15.57;10.45;;;2.50;99.90;;;;;;5058533;28;20052;-79
2021/12/10 01:32:14;;;;;;;16.17;9.27;;;2.60;99.90;;;;;;5039936;28;20025;-79
2021/12/10 01:34:40;;;;;;;16.17;9.25;;;2.60;99.90;;;;;;5041232;28;20033;-79
2021/12/10 01:37:07;;;;;;;15.30;8.55;;;2.60;99.90;;;;;;5042740;28;20037;-78
2021/12/10 01:39:37;;;;;;;16.00;9.35;;;2.70;99.90;;;;;;5044222;28;20033;-79
2021/12/10 01:42:19;;;;;;;17.73;9.23;;;2.70;99.90;;;;;;5041803;28;20406;-79
2021/12/10 01:44:51;;;;;;;12.00;8.35;;;2.60;99.90;;;;;;5055103;28;20037;-79
2021/12/10 01:47:21;;;;;;;14.05;8.88;;;2.70;99.90;;;;;;5040824;28;20025;-79
2021/12/10 01:49:47;;;;;;;18.45;9.63;;;2.70;99.90;;;;;;5057623;28;20041;-78
2021/12/10 01:52:15;;;;;;;14.18;8.43;;;2.70;99.90;;;;;;5040627;28;20053;-79
2021/12/10 01:54:44;;;;;;;15.48;10.00;;;2.70;99.90;;;;;;5041708;28;20029;-79
2021/12/10 01:57:12;;;;;;;18.75;8.73;;;2.70;99.90;;;;;;5027944;28;20067;-78
2021/12/10 01:59:40;;;;;;;13.60;8.88;;;2.70;99.90;;;;;;5060202;28;20112;-78
2021/12/10 02:02:14;;;;;;;15.90;9.25;;;2.70;99.90;;;;;;5060234;28;20039;-78
2021/12/10 02:04:41;;;;;;;;;;;2.70;99.90;;;;;;5059648;28;20029;-80
2021/12/10 02:07:10;;;;;;;12.60;8.60;;;2.80;99.90;;;;;;5039060;28;19944;-80
2021/12/10 02:09:35;;;;;;;16.40;9.40;;;2.80;99.90;;;;;;5037048;28;20102;-78
2021/12/10 02:12:02;;;;;;;14.82;8.93;;;2.80;99.90;;;;;;5037404;28;20136;-79
2021/12/10 02:14:27;;;;;;;11.95;8.57;;;2.80;99.90;;;;;;5059621;28;20116;-80
2021/12/10 02:16:56;;;;;;;15.50;9.15;;;2.80;99.90;;;;;;5059808;28;20148;-79
2021/12/10 02:19:22;;;;;;;14.93;9.60;;;2.90;99.90;;;;;;5054609;28;20508;-80
2021/12/10 02:21:48;;;;;;;16.05;9.18;;;2.90;99.90;;;;;;5041351;28;20025;-78
2021/12/10 02:24:14;;;;;;;16.25;8.90;;;2.90;99.90;;;;;;5043395;28;20485;-79
2021/12/10 02:26:48;;;;;;;13.48;9.13;;;2.90;99.90;;;;;;5044568;28;20033;-78
2021/12/10 02:29:16;;;;;;;13.73;8.88;;;2.90;99.90;;;;;;5042240;28;20024;-78
2021/12/10 02:31:41;;;;;;;17.27;9.75;;;2.90;99.90;;;;;;5057290;28;20496;-78
2021/12/10 02:34:08;;;;;;;15.38;9.82;;;2.90;99.90;;;;;;5040151;28;20025;-78
2021/12/10 02:36:39;;;;;;;14.18;10.30;;;2.90;99.90;;;;;;5041906;28;20049;-78
2021/12/10 02:39:05;;;;;;;17.08;11.05;;;2.80;99.90;;;;;;5041580;28;20037;-79
2021/12/10 02:41:32;;;;;;;20.50;11.40;;;2.90;99.90;;;;;;5025186;28;20068;-78
2021/12/10 02:43:59;;;;;;;15.50;9.98;;;2.90;99.90;;;;;;5025032;28;20075;-78
2021/12/10 02:46:25;;;;;;;14.65;9.95;;;2.90;99.90;;;;;;5058155;28;20048;-78
2021/12/10 02:48:50;;;;;;;17.60;10.93;;;3.00;99.90;;;;;;5039675;28;20028;-81
2021/12/10 02:51:17;;;;;;;20.58;10.57;;;3.00;99.90;;;;;;5056883;28;20045;-81
2021/12/10 02:53:45;;;;;;;17.42;10.80;;;2.90;99.90;;;;;;5039870;28;20033;-82
2021/12/10 02:56:14;;;;;;;19.58;10.88;;;3.00;99.90;;;;;;5039657;28;20080;-82
2021/12/10 02:58:41;;;;;;;17.02;10.38;;;3.00;99.90;;;;;;5042795;28;20112;-80
2021/12/10 03:01:21;;;;;;;16.33;10.70;;;2.90;99.90;;;;;;5041716;28;20126;-83
2021/12/10 03:03:47;;;;;;;20.15;12.00;;;3.00;99.90;;;;;;5027646;28;20068;-84
2021/12/10 03:06:15;;;;;;;18.08;11.23;;;2.90;99.90;;;;;;5011146;28;20060;-81
2021/12/10 03:08:44;;;;;;;18.55;11.55;;;2.90;99.90;;;;;;5021442;28;20035;-81
2021/12/10 03:11:12;;;;;;;18.17;11.00;;;3.00;99.90;;;;;;5018666;28;20045;-81
2021/12/10 03:13:38;;;;;;;17.92;11.20;;;3.00;99.90;;;;;;5018668;28;20449;-82
2021/12/10 03:16:06;;;;;;;20.48;12.13;;;3.00;99.90;;;;;;5020684;28;20729;-82
2021/12/10 03:18:32;;;;;;;21.15;11.77;;;3.00;99.90;;;;;;5036456;28;20393;-81
2021/12/10 03:20:58;;;;;;;23.02;12.05;;;3.00;99.90;;;;;;5018284;28;20045;-81
2021/12/10 03:23:24;;;;;;;17.42;11.43;;;3.00;99.90;;;;;;5054985;28;20033;-81
2021/12/10 03:25:49;;;;;;;21.27;11.88;;;3.00;99.90;;;;;;5037786;28;20060;-80
2021/12/10 03:28:16;;;;;;;20.27;12.32;;;3.00;99.90;;;;;;5020888;28;20146;-80
2021/12/10 03:30:46;;;;;;;23.58;12.18;;;3.00;99.90;;;;;;5055874;28;20036;-80
2021/12/10 03:33:12;;;;;;;19.25;11.65;;;3.00;99.90;;;;;;5021322;28;20029;-82
2021/12/10 03:35:42;;;;;;;18.85;11.93;;;3.00;99.90;;;;;;5037608;28;20044;-81
2021/12/10 03:38:11;;;;;;;20.02;11.95;;;3.10;99.90;;;;;;5037965;28;20052;-81
2021/12/10 03:40:37;;;;;;;18.30;11.95;;;3.10;99.90;;;;;;5037226;28;20144;-79
2021/12/10 03:43:04;;;;;;;16.05;11.38;;;3.10;99.90;;;;;;5021395;28;20067;-78
2021/12/10 03:45:34;;;;;;;18.17;11.88;;;3.10;99.90;;;;;;5024091;28;20035;-79
2021/12/10 03:48:01;;;;;;;19.80;12.02;;;3.20;99.90;;;;;;5040566;28;20033;-78
2021/12/10 03:50:30;;;;;;;19.33;12.32;;;3.10;99.90;;;;;;5039468;28;20067;-78
2021/12/10 03:52:56;;;;;;;18.30;12.68;;;3.10;99.90;;;;;;5038495;28;20029;-78
2021/12/10 03:55:23;;;;;;;17.00;11.23;;;3.10;99.90;;;;;;5055225;28;20039;-79
2021/12/10 03:57:50;;;;;;;18.95;11.80;;;3.20;99.90;;;;;;5037614;28;20044;-78
2021/12/10 04:00:18;;;;;;;18.67;10.80;;;3.10;99.90;;;;;;5037382;28;20064;-79
2021/12/10 04:02:44;;;;;;;18.30;12.60;;;3.20;99.90;;;;;;5036562;28;20125;-78
2021/12/10 04:05:09;;;;;;;20.17;12.05;;;3.10;99.90;;;;;;5036846;28;20060;-79
2021/12/10 04:07:35;;;;;;;17.17;12.15;;;3.00;99.90;;;;;;5055853;28;20468;-78
2021/12/10 04:10:02;;;;;;;17.85;12.10;;;2.90;99.90;;;;;;5042083;28;20037;-79
2021/12/10 04:12:27;;;;;;;20.48;12.52;;;2.90;99.90;;;;;;5059352;28;20116;-79
2021/12/10 04:14:53;;;;;;;19.67;12.75;;;2.90;99.90;;;;;;5041631;28;20071;-79
2021/12/10 04:17:21;;;;;;;24.38;13.35;;;2.90;99.90;;;;;;5060610;28;20033;-81
2021/12/10 04:19:50;;;;;;;19.40;13.02;;;2.90;99.90;;;;;;5043718;28;20174;-78
2021/12/10 04:22:17;;;;;;;18.65;12.15;;;2.90;99.90;;;;;;5044440;28;20126;-78
2021/12/10 04:24:43;;;;;;;19.42;12.52;;;2.90;99.90;;;;;;5041597;28;20029;-78
2021/12/10 04:27:12;;;;;;;20.08;12.75;;;3.00;99.90;;;;;;5041658;28;20535;-76
2021/12/10 04:29:38;;;;;;;22.15;12.05;;;3.00;99.90;;;;;;5061065;28;20477;-79
2021/12/10 04:32:05;;;;;;;16.65;11.90;;;3.00;99.90;;;;;;5043542;28;20084;-78
2021/12/10 04:34:31;;;;;;;21.98;12.85;;;3.00;99.90;;;;;;5042265;28;20089;-78
2021/12/10 04:36:59;;;;;;;21.13;14.18;;;3.10;99.90;;;;;;5060255;28;20485;-79
2021/12/10 04:39:26;;;;;;;18.27;14.02;;;3.10;99.90;;;;;;5042866;28;20033;-78
2021/12/10 04:41:52;;;;;;;21.88;14.75;;;3.10;99.90;;;;;;5060561;28;20033;-78
2021/12/10 04:44:18;;;;;;;22.35;16.00;;;3.00;99.90;;;;;;5058705;28;20017;-79
2021/12/10 04:46:44;;;;;;;21.10;15.05;;;3.00;99.90;;;;;;5041525;28;20029;-79
2021/12/10 04:49:12;;;;;;;26.95;16.17;;;3.00;99.90;;;;;;5042004;28;20064;-81
2021/12/10 04:51:43;;;;;;;22.42;16.02;;;3.10;99.90;;;;;;5059646;28;20029;-81
2021/12/10 04:54:10;;;;;;;25.08;15.85;;;3.20;99.90;;;;;;5037337;28;20040;-81
2021/12/10 04:56:37;;;;;;;20.80;14.10;;;3.20;99.90;;;;;;5021139;28;20034;-81
2021/12/10 04:59:05;;;;;;;23.95;15.10;;;3.20;99.90;;;;;;5055709;28;20040;-82
2021/12/10 05:01:31;;;;;;;23.70;15.30;;;3.20;99.90;;;;;;5023772;28;20029;-78
2021/12/10 05:03:58;;;;;;;20.95;15.20;;;3.20;99.90;;;;;;5024367;28;20562;-79
2021/12/10 05:06:23;;;;;;;22.42;15.52;;;3.20;99.90;;;;;;5041061;28;20083;-78
2021/12/10 05:08:49;;;;;;;23.65;15.35;;;3.10;99.90;;;;;;5058741;28;20045;-79
2021/12/10 05:11:16;;;;;;;26.58;15.23;;;3.20;99.90;;;;;;5041983;28;20041;-79
2021/12/10 05:13:44;;;;;;;21.38;15.02;;;3.20;99.90;;;;;;5040891;28;20098;-78
2021/12/10 05:16:12;;;;;;;21.92;15.52;;;3.30;99.90;;;;;;5041556;28;20037;-78
2021/12/10 05:18:40;;;;;;;18.02;13.45;;;3.30;99.90;;;;;;5041165;28;20056;-78
2021/12/10 05:21:09;;;;;;;22.27;13.85;;;3.40;99.90;;;;;;5061986;28;20029;-81
2021/12/10 05:23:36;;;;;;;20.85;14.55;;;3.40;99.90;;;;;;5026069;28;20040;-81
2021/12/10 05:26:03;;;;;;;23.92;14.90;;;3.30;99.90;;;;;;5042892;28;20192;-80
2021/12/10 05:28:28;;;;;;;20.33;13.82;;;3.30;99.90;;;;;;5042846;28;20484;-78
2021/12/10 05:30:56;;;;;;;21.05;14.32;;;3.30;99.90;;;;;;5023590;28;20037;-78
2021/12/10 05:33:26;;;;;;;20.77;14.38;;;3.30;99.90;;;;;;5041703;28;20025;-78
2021/12/10 05:35:53;;;;;;;19.77;13.95;;;3.30;99.90;;;;;;5041180;28;20032;-78
2021/12/10 05:38:20;;;;;;;20.95;13.85;;;3.30;99.90;;;;;;5041600;28;20075;-78
2021/12/10 05:40:49;;;;;;;17.40;13.90;;;3.30;99.90;;;;;;5059104;28;20083;-78
2021/12/10 05:43:15;;;;;;;20.73;15.07;;;3.30;99.90;;;;;;5057382;28;20076;-78
2021/12/10 05:45:41;;;;;;;23.67;15.20;;;3.20;99.90;;;;;;5042485;28;20098;-79
2021/12/10 05:48:07;;;;;;;25.08;14.48;;;3.30;99.90;;;;;;5023521;28;20451;-80
2021/12/10 05:50:33;;;;;;;21.98;14.73;;;3.20;99.90;;;;;;5024866;28;20029;-78
2021/12/10 05:52:59;;;;;;;20.02;14.27;;;3.20;99.90;;;;;;5042614;28;20049;-79
2021/12/10 05:55:25;;;;;;;24.38;16.10;;;3.30;99.90;;;;;;5024482;28;20044;-79
2021/12/10 05:57:52;;;;;;;28.17;15.48;;;3.20;99.90;;;;;;5059561;28;20377;-78
2021/12/10 06:00:21;;;;;;;22.02;15.90;;;3.20;99.90;;;;;;5052316;28;20040;-81
2021/12/10 06:02:48;;;;;;;25.17;15.95;;;3.20;99.90;;;;;;5043523;28;20496;-79
2021/12/10 06:05:14;;;;;;;21.90;15.65;;;3.20;99.90;;;;;;5025892;28;20032;-79
2021/12/10 06:07:40;;;;;;;20.95;15.20;;;3.20;99.90;;;;;;5058515;28;20033;-79
2021/12/10 06:10:09;;;;;;;20.88;15.65;;;3.20;99.90;;;;;;5057584;28;20052;-79
2021/12/10 06:12:35;;;;;;;22.17;15.02;;;3.20;99.90;;;;;;5056455;28;20052;-80
2021/12/10 06:15:02;;;;;;;21.90;15.30;;;3.30;99.90;;;;;;5039905;28;20037;-78
2021/12/10 06:17:28;;;;;;;22.48;14.23;;;3.30;99.90;;;;;;5042082;28;20112;-79
2021/12/10 06:19:54;;;;;;;21.08;13.88;;;3.30;99.90;;;;;;5040184;28;20494;-79
2021/12/10 06:22:20;;;;;;;21.35;14.65;;;3.30;99.90;;;;;;5058321;28;20033;-78
2021/12/10 06:24:45;;;;;;;25.67;17.17;;;3.30;99.90;;;;;;5039685;28;20071;-80
2021/12/10 06:27:11;;;;;;;23.65;16.77;;;3.20;99.90;;;;;;5028715;28;20013;-78
2021/12/10 06:29:41;;;;;;;26.25;16.88;;;3.10;99.90;;;;;;5040123;28;20039;-80
2021/12/10 06:32:08;;;;;;;27.30;17.10;;;3.10;99.90;;;;;;5042361;28;20377;-79
2021/12/10 06:34:33;;;;;;;22.83;15.80;;;3.20;99.90;;;;;;5022941;28;20077;-78
2021/12/10 06:36:59;;;;;;;22.95;16.40;;;3.20;99.90;;;;;;5024549;28;20044;-78
2021/12/10 06:39:24;;;;;;;25.00;15.95;;;3.20;99.90;;;;;;5025041;28;20056;-78
2021/12/10 06:41:52;;;;;;;25.30;14.85;;;3.20;99.90;;;;;;5024476;28;20115;-79
2021/12/10 06:44:18;;;;;;;26.65;15.10;;;3.10;99.90;;;;;;5041536;28;20025;-79
2021/12/10 06:46:44;;;;;;;25.00;15.85;;;3.10;99.90;;;;;;5040622;28;20024;-80
2021/12/10 06:49:11;;;;;;;26.38;15.52;;;3.00;99.90;;;;;;5041585;28;20048;-78
2021/12/10 06:51:37;;;;;;;21.05;14.68;;;3.00;99.90;;;;;;5041625;28;20063;-78
2021/12/10 06:54:03;;;;;;;23.63;15.02;;;3.00;99.90;;;;;;5040718;28;20033;-79
2021/12/10 06:56:31;;;;;;;23.17;14.38;;;3.00;99.90;;;;;;5058237;28;20037;-79
2021/12/10 06:58:57;;;;;;;21.40;14.23;;;3.00;99.90;;;;;;5040345;28;20037;-77
2021/12/10 07:01:26;;;;;;;21.13;13.73;;;3.10;99.90;;;;;;5040353;28;20040;-79
2021/12/10 07:03:53;;;;;;;27.30;14.13;;;3.10;99.90;;;;;;5024471;28;20025;-79
2021/12/10 07:06:20;;;;;;;25.77;15.60;;;3.20;99.90;;;;;;5057573;28;20086;-79
2021/12/10 07:08:48;;;;;;;23.10;14.57;;;3.10;99.90;;;;;;5058245;28;20025;-78
2021/12/10 07:11:16;;;;;;;22.88;14.50;;;3.10;99.90;;;;;;5029038;28;20033;-79
2021/12/10 07:13:45;;;;;;;20.98;14.93;;;3.10;99.90;;;;;;5037331;28;20112;-78
2021/12/10 07:16:11;;;;;;;21.45;14.57;;;3.10;99.90;;;;;;5037542;28;20381;-78
2021/12/10 07:18:36;;;;;;;27.70;16.63;;;3.10;99.90;;;;;;5036556;28;20045;-79
2021/12/10 07:21:04;;;;;;;23.70;15.27;;;3.10;99.90;;;;;;5028368;28;20124;-79
2021/12/10 07:23:30;;;;;;;22.48;15.57;;;3.10;99.90;;;;;;5037481;28;20677;-78
2021/12/10 07:25:55;;;;;;;24.92;15.43;;;3.30;99.90;;;;;;5036956;28;20127;-79
2021/12/10 07:28:22;;;;;;;26.95;16.75;;;3.20;99.90;;;;;;5051786;28;20075;-79
2021/12/10 07:30:49;;;;;;;25.98;16.92;;;3.30;99.90;;;;;;5053618;28;20041;-78
2021/12/10 07:33:16;;;;;;;26.35;15.68;;;3.30;99.90;;;;;;5040775;28;20035;-82
2021/12/10 07:35:44;;;;;;;26.73;15.90;;;3.30;99.90;;;;;;5058488;28;20055;-79
2021/12/10 07:38:10;;;;;;;24.65;15.35;;;3.20;99.90;;;;;;5056419;28;20090;-78
2021/12/10 07:40:37;;;;;;;27.23;15.65;;;3.20;99.90;;;;;;5056628;28;20044;-79
2021/12/10 07:43:04;;;;;;;28.05;17.30;;;3.20;99.90;;;;;;5029768;28;20033;-78
2021/12/10 07:45:30;;;;;;;27.13;17.48;;;3.20;99.90;;;;;;5034572;28;20485;-78
2021/12/10 07:47:58;;;;;;;28.75;16.27;;;3.20;99.90;;;;;;5055063;28;20043;-80
2021/12/10 07:50:32;;;;;;;23.80;16.88;;;3.10;99.90;;;;;;5038419;28;20120;-78
2021/12/10 07:52:58;;;;;;;25.02;16.60;;;3.20;99.90;;;;;;5040093;28;20068;-78
2021/12/10 07:55:30;;;;;;;21.67;15.23;;;3.20;99.90;;;;;;5040890;28;20036;-78
2021/12/10 07:57:57;;;;;;;21.55;14.00;;;3.30;99.90;;;;;;5022989;28;20052;-78
2021/12/10 08:00:25;;;;;;;21.88;14.35;;;3.30;99.90;;;;;;5027425;28;20053;-78
2021/12/10 08:02:51;;;;;;;21.58;14.05;;;3.30;99.90;;;;;;5039998;28;20088;-79
2021/12/10 08:05:17;;;;;;;21.63;14.82;;;3.40;99.90;;;;;;5049596;28;20511;-79
2021/12/10 08:07:46;;;;;;;18.65;13.48;;;3.40;99.90;;;;;;5048088;28;20025;-81
2021/12/10 08:10:13;;;;;;;24.50;13.60;;;3.40;99.90;;;;;;5020285;28;20089;-80
2021/12/10 08:12:39;;;;;;;21.33;13.82;;;3.50;99.90;;;;;;5020242;28;20490;-81
2021/12/10 08:15:07;;;;;;;18.92;13.10;;;3.50;99.90;;;;;;5021086;28;20044;-81
2021/12/10 08:17:33;;;;;;;22.52;15.27;;;3.60;99.90;;;;;;5021651;28;20040;-80
2021/12/10 08:20:01;;;;;;;27.25;17.75;;;3.60;99.90;;;;;;5023778;28;20039;-81
2021/12/10 08:22:27;;;;;;;25.15;17.92;;;3.60;99.90;;;;;;5058427;28;20041;-81
2021/12/10 08:24:53;;;;;;;26.05;17.73;;;3.50;99.90;;;;;;5027507;28;20025;-80
2021/12/10 08:27:19;;;;;;;26.27;16.85;;;3.40;99.90;;;;;;5039324;28;20118;-82
2021/12/10 08:29:45;;;;;;;29.15;17.48;;;3.40;99.90;;;;;;5039488;28;20029;-82
2021/12/10 08:32:14;;;;;;;27.88;17.35;;;3.40;99.90;;;;;;5061132;28;20085;-82
2021/12/10 08:34:40;;;;;;;24.45;16.15;;;3.40;99.90;;;;;;5059042;28;20039;-79
2021/12/10 08:37:06;;;;;;;22.52;16.02;;;3.40;99.90;;;;;;5041016;28;20080;-79
2021/12/10 08:39:32;;;;;;;35.00;20.17;;;3.40;99.90;;;;;;5042793;28;20402;-79
2021/12/10 08:41:59;;;;;;;28.20;16.45;;;3.40;99.90;;;;;;5060211;28;20402;-79
2021/12/10 08:44:27;;;;;;;27.90;16.27;;;3.40;99.90;;;;;;5042360;28;20547;-79
2021/12/10 08:46:53;;;;;;;26.98;14.93;;;3.50;99.90;;;;;;5040856;28;20040;-79
2021/12/10 08:49:19;;;;;;;31.20;14.63;;;3.60;99.90;;;;;;5039081;28;20032;-80
2021/12/10 08:51:51;;;;;;;30.08;14.18;;;3.60;99.90;;;;;;5056283;28;20051;-82
2021/12/10 08:54:19;;;;;;;25.65;15.35;;;3.60;99.90;;;;;;5040831;28;20027;-80
2021/12/10 08:56:46;;;;;;;29.85;15.90;;;3.70;99.90;;;;;;5041506;28;20112;-82
2021/12/10 08:59:13;;;;;;;25.50;16.85;;;3.70;99.90;;;;;;5059468;28;20438;-79
2021/12/10 09:01:44;;;;;;;21.30;14.27;;;3.70;99.90;;;;;;5058098;28;20076;-79
2021/12/10 09:04:12;;;;;;;22.95;14.20;;;3.70;99.90;;;;;;5014044;28;20034;-79
2021/12/10 09:06:43;;;;;;;20.52;13.40;;;3.80;99.90;;;;;;5030475;28;20049;-78
2021/12/10 09:09:11;;;;;;;23.23;13.88;;;3.80;99.90;;;;;;5041622;28;20033;-79
2021/12/10 09:11:40;;;;;;;24.20;14.63;;;3.90;99.90;;;;;;5042111;28;20029;-81
2021/12/10 09:14:07;;;;;;;20.35;13.48;;;3.90;99.90;;;;;;5049647;28;20059;-79
2021/12/10 09:16:36;;;;;;;21.65;15.13;;;4.00;99.90;;;;;;5044623;28;20036;-81
2021/12/10 09:19:05;;;;;;;21.48;14.48;;;4.20;99.90;;;;;;5061813;28;20052;-80
2021/12/10 09:21:33;;;;;;;25.45;14.63;;;4.20;99.90;;;;;;5042228;28;20036;-83
2021/12/10 09:24:04;;;;;;;28.10;17.15;;;4.20;99.90;;;;;;5042731;28;20040;-82
2021/12/10 09:26:33;;;;;;;27.05;16.05;;;4.30;99.90;;;;;;5044403;28;20033;-82
2021/12/10 09:29:00;;;;;;;23.92;15.88;;;4.30;99.90;;;;;;5042024;28;20025;-81
2021/12/10 09:31:26;;;;;;;24.90;14.88;;;4.40;99.90;;;;;;5041602;28;20041;-81
2021/12/10 09:33:55;;;;;;;24.83;16.17;;;4.40;99.90;;;;;;5042680;28;20029;-84
2021/12/10 09:36:22;;;;;;;22.15;15.52;;;4.40;99.90;;;;;;5059509;28;20048;-82
2021/12/10 09:38:48;;;;;;;24.10;15.60;;;4.50;99.90;;;;;;5059915;28;20112;-82
2021/12/10 09:41:16;;;;;;;24.17;15.77;;;4.50;99.90;;;;;;5041792;28;20033;-81
2021/12/10 09:43:42;;;;;;;24.92;14.60;;;4.60;99.90;;;;;;5060624;28;20492;-82
2021/12/10 09:46:09;;;;;;;21.63;14.45;;;4.60;99.90;;;;;;5026346;28;20037;-80
2021/12/10 09:48:36;;;;;;;24.55;14.60;;;4.60;99.90;;;;;;5063115;28;20037;-79
2021/12/10 09:51:16;;;;;;;20.85;14.45;;;4.70;99.90;;;;;;5044256;28;20025;-79
2021/12/10 09:53:45;;;;;;;24.15;15.13;;;4.90;99.90;;;;;;5043838;28;20093;-79
2021/12/10 09:56:14;;;;;;;22.98;15.20;;;4.90;99.90;;;;;;5044993;28;20385;-78
2021/12/10 09:58:39;;;;;;;20.98;13.55;;;5.00;99.90;;;;;;5026768;28;20032;-79
2021/12/10 10:01:09;;;;;;;21.50;14.27;;;5.00;99.90;;;;;;5043193;28;20373;-80
2021/12/10 10:03:41;;;;;;;26.58;14.68;;;5.10;99.90;;;;;;5032730;28;20229;-79
2021/12/10 10:06:08;;;;;;;20.13;14.05;;;5.20;99.90;;;;;;5032077;28;20055;-78
2021/12/10 10:08:35;;;;;;;21.58;14.60;;;5.30;99.90;;;;;;5032674;28;20113;-82
2021/12/10 10:11:07;;;;;;;25.15;14.40;;;5.50;99.90;;;;;;5022727;28;20035;-81
2021/12/10 10:13:36;;;;;;;22.73;14.75;;;5.70;99.90;;;;;;5023051;28;20038;-83
2021/12/10 10:16:03;;;;;;;18.92;13.07;;;5.80;99.90;;;;;;5022168;28;20037;-81
2021/12/10 10:18:31;;;;;;;20.25;14.07;;;5.80;99.90;;;;;;5039523;28;20057;-82
2021/12/10 10:21:02;;;;;;;25.10;14.95;;;5.80;99.90;;;;;;5038115;28;20033;-81
2021/12/10 10:23:29;;;;;;;22.52;14.38;;;5.80;99.90;;;;;;5021908;28;20037;-82
2021/12/10 10:25:57;;;;;;;19.35;13.48;;;5.80;99.90;;;;;;5021801;28;20030;-80
2021/12/10 10:28:24;;;;;;;23.48;16.00;;;5.70;99.90;;;;;;5008267;28;20033;-81
2021/12/10 10:31:00;;;;;;;32.60;21.15;;;5.60;99.90;;;;;;5021312;28;20029;-82
2021/12/10 10:33:31;;;;;;;20.52;14.75;;;5.40;99.90;;;;;;5042382;28;20045;-79
2021/12/10 10:36:01;;;;;;;18.60;13.25;;;5.40;99.90;;;;;;5039879;28;20052;-80
2021/12/10 10:38:28;;;;;;;19.42;13.25;;;5.40;99.90;;;;;;5042085;28;20041;-81
2021/12/10 10:41:01;;;;;;;19.55;11.88;;;5.50;99.90;;;;;;5038007;28;20037;-80
2021/12/10 10:43:28;;;;;;;18.77;12.70;;;5.60;99.90;;;;;;5052133;28;20036;-79
2021/12/10 10:45:56;;;;;;;19.38;14.00;;;5.60;99.90;;;;;;5035864;28;20029;-80
2021/12/10 10:48:23;;;;;;;21.65;16.02;;;5.60;99.90;;;;;;5057417;28;20028;-80
2021/12/10 10:51:08;;;;;;;20.55;14.40;;;5.50;99.90;;;;;;5041080;28;20112;-82
2021/12/10 10:53:43;;;;;;;17.05;12.40;;;5.40;99.90;;;;;;5041785;28;20021;-81
2021/12/10 10:56:13;;;;;;;15.45;12.02;;;5.20;99.90;;;;;;5021315;28;20037;-81
2021/12/10 10:58:46;;;;;;;17.50;12.30;;;5.20;99.90;;;;;;5054082;28;20167;-82
2021/12/10 11:01:23;;;;;;;16.10;12.10;;;5.20;99.90;;;;;;5057067;28;20114;-81
2021/12/10 11:04:04;;;;;;;31.42;20.27;;;5.40;99.90;;;;;;5025104;28;20040;-80
2021/12/10 11:06:37;;;;;;;27.60;19.63;;;5.40;99.90;;;;;;5036583;28;20035;-80
2021/12/10 11:09:06;;;;;;;21.48;12.85;;;5.50;99.90;;;;;;5040696;28;20029;-80
2021/12/10 11:11:35;;;;;;;16.30;13.25;;;5.40;99.90;;;;;;5036879;28;20021;-79
2021/12/10 11:14:11;;;;;;;17.20;11.90;;;5.50;99.90;;;;;;5039806;28;20055;-79
2021/12/10 11:16:41;;;;;;;22.75;17.05;;;5.50;99.90;;;;;;5052313;28;20519;-80
2021/12/10 11:19:11;;;;;;;17.10;11.60;;;5.60;99.90;;;;;;5038485;28;20098;-81
2021/12/10 11:21:52;;;;;;;17.88;12.10;;;5.60;99.90;;;;;;5040887;28;20484;-80
2021/12/10 11:24:42;;;;;;;16.08;11.27;;;5.70;99.90;;;;;;5025885;28;20037;-79
2021/12/10 11:27:21;;;;;;;15.65;11.70;;;5.70;99.90;;;;;;5043968;28;20036;-80
2021/12/10 11:30:13;;;;;;;14.20;10.82;;;5.70;99.90;;;;;;5029248;28;20074;-79
2021/12/10 11:32:44;;;;;;;15.63;10.52;;;5.70;99.90;;;;;;5058100;28;20022;-80
2021/12/10 11:35:30;;;;;;;16.73;12.15;;;5.80;99.90;;;;;;5032778;28;20024;-81
2021/12/10 11:38:01;;;;;;;14.55;11.65;;;5.70;99.90;;;;;;5024140;28;20045;-80
2021/12/10 11:40:34;;;;;;;13.52;10.60;;;5.60;99.90;;;;;;5048322;28;20021;-79
2021/12/10 11:48:47;;;;;;;13.45;9.07;;;5.60;99.90;;;;;;5039711;28;20268;-79
2021/12/10 11:51:18;;;;;;;10.70;7.93;;;5.60;99.90;;;;;;5051003;28;20029;-81
2021/12/10 11:54:09;;;;;;;13.90;10.50;;;5.60;99.90;;;;;;5027855;28;20148;-81
2021/12/10 11:56:43;;;;;;;18.70;14.48;;;5.50;99.90;;;;;;5018124;28;20049;-81
2021/12/10 11:59:27;;;;;;;10.90;8.95;;;5.50;99.90;;;;;;5056663;28;20377;-81
2021/12/10 12:02:04;;;;;;;16.27;9.85;;;5.50;99.90;;;;;;5054596;28;20033;-79
2021/12/10 12:04:57;;;;;;;9.73;7.80;;;5.50;99.90;;;;;;5030785;28;20072;-80
2021/12/10 12:07:39;;;;;;;11.55;8.70;;;5.50;99.90;;;;;;5026957;28;20033;-80
2021/12/10 12:10:26;;;;;;;9.38;7.47;;;5.50;99.90;;;;;;5059869;28;20017;-79
2021/12/10 12:13:56;;;;;;;8.88;6.72;;;5.60;99.90;;;;;;5039726;28;20033;-80
2021/12/10 12:16:06;;;;;;;10.32;8.05;;;5.70;99.90;;;;;;5049141;28;20119;-81
2021/12/10 12:18:48;;;;;;;11.80;8.73;;;5.70;99.90;;;;;;5038846;28;20037;-80
2021/12/10 12:27:12;;;;;;;11.50;7.20;;;5.80;99.90;;;;;;5051373;28;20025;-81
2021/12/10 12:29:55;;;;;;;9.15;7.55;;;5.90;99.90;;;;;;5029039;28;20025;-79
2021/12/10 12:32:25;;;;;;;8.25;6.68;;;5.90;99.90;;;;;;5022888;28;20036;-79
2021/12/10 12:34:51;;;;;;;8.75;6.78;;;5.80;99.90;;;;;;5022961;28;20033;-81
2021/12/10 12:37:19;;;;;;;12.95;8.18;;;5.80;99.90;;;;;;5041518;28;20378;-79
2021/12/10 12:40:00;;;;;;;9.55;7.78;;;5.80;99.90;;;;;;5025189;28;20022;-81
2021/12/10 12:42:36;;;;;;;13.02;8.07;;;5.80;99.90;;;;;;5023941;28;20487;-80
2021/12/10 12:45:06;;;;;;;19.85;12.32;;;5.80;99.90;;;;;;5043055;28;20039;-82
2021/12/10 12:47:37;;;;;;;19.17;11.15;;;5.80;99.90;;;;;;5047352;28;20021;-79
2021/12/10 12:50:07;;;;;;;15.45;10.27;;;5.80;99.90;;;;;;5061875;28;20557;-79
2021/12/10 12:52:54;;;;;;;10.68;8.60;;;5.80;99.90;;;;;;5049579;28;20056;-79
2021/12/10 12:55:47;;;;;;;9.13;7.07;;;5.80;99.90;;;;;;5023301;28;20083;-80
2021/12/10 12:58:36;;;;;;;12.07;7.82;;;5.70;99.70;;;;;;5034139;28;20044;-79
2021/12/10 13:01:24;;;;;;;12.23;8.35;;;5.60;99.90;;;;;;5043297;28;20059;-82
2021/12/10 13:04:10;;;;;;;12.70;8.38;;;5.60;99.90;;;;;;5060329;28;20036;-79
2021/12/10 13:06:44;;;;;;;12.52;9.35;;;5.60;99.90;;;;;;5044372;28;20038;-79
2021/12/10 13:09:15;;;;;;;;;;;5.60;99.90;;;;;;5024907;28;20287;-78
2021/12/10 13:12:00;;;;;;;14.13;8.38;;;5.50;99.90;;;;;;5024114;28;19913;-80